Time;durP1;ratioP1;P1;durP2;ratioP2;P2;SDS_P1;SDS_P2;PMS_P1;PMS_P2;Temp;Humidity;BMP_temperature;BMP_pressure;BME280_temperature;BME280_humidity;BME280_pressure;Samples;Min_cycle;Max_cycle;Signal;HPM_P1;HPM_P2
2023/04/22 00:01:25;;;;;;;36.00;15.30;;;;;;;7.51;63.49;100255.00;106244;1276;22633;-58
2023/04/22 00:03:56;;;;;;;37.80;14.80;;;;;;;7.46;63.64;100250.66;110261;1269;22146;-59
2023/04/22 00:06:27;;;;;;;39.70;16.20;;;;;;;7.42;63.75;100249.02;110258;1263;22852;-58
2023/04/22 00:08:59;;;;;;;45.30;18.40;;;;;;;7.38;63.96;100249.67;110231;1273;22344;-59
2023/04/22 00:11:30;;;;;;;49.30;17.80;;;;;;;7.32;64.15;100249.96;110283;1262;22284;-59
2023/04/22 00:14:01;;;;;;;39.50;17.40;;;;;;;7.28;64.01;100249.79;110270;1270;22154;-59
2023/04/22 00:16:32;;;;;;;36.40;16.50;;;;;;;7.24;64.23;100248.92;110264;1276;22363;-57
2023/04/22 00:19:04;;;;;;;41.50;16.90;;;;;;;7.21;64.27;100248.99;110246;1264;22425;-58
2023/04/22 00:21:35;;;;;;;44.20;17.90;;;;;;;7.19;64.36;100250.34;110259;1270;22381;-60
2023/04/22 00:24:06;;;;;;;49.10;18.10;;;;;;;7.13;64.56;100243.56;110247;1264;22435;-59
2023/04/22 00:26:37;;;;;;;39.80;17.00;;;;;;;7.10;64.67;100241.95;110234;1270;22154;-59
2023/04/22 00:29:08;;;;;;;41.40;17.60;;;;;;;7.08;64.81;100247.36;110260;1262;22282;-56
2023/04/22 00:31:39;;;;;;;38.00;16.80;;;;;;;7.05;64.90;100246.60;110222;1277;22315;-59
2023/04/22 00:34:09;;;;;;;39.60;16.20;;;;;;;7.02;65.03;100249.34;110288;1263;22244;-59
2023/04/22 00:36:41;;;;;;;46.10;17.50;;;;;;;6.96;65.18;100238.43;110267;1270;22198;-59
2023/04/22 00:39:12;;;;;;;39.00;16.40;;;;;;;6.92;65.32;100244.48;110239;1267;22925;-59
2023/04/22 00:41:44;;;;;;;36.30;15.40;;;;;;;6.87;65.46;100243.55;110255;1263;22201;-58
2023/04/22 00:44:15;;;;;;;42.10;18.40;;;;;;;6.85;65.58;100244.36;110253;1270;22312;-59
2023/04/22 00:46:47;;;;;;;35.30;13.40;;;;;;;6.81;65.92;100243.77;110309;1276;23532;-59
2023/04/22 00:49:19;;;;;;;31.50;13.40;;;;;;;6.76;66.10;100244.13;110279;1269;22254;-58
2023/04/22 00:51:51;;;;;;;28.00;11.50;;;;;;;6.73;66.30;100244.50;110274;1264;22981;-58
2023/04/22 00:54:22;;;;;;;26.10;11.10;;;;;;;6.70;66.17;100246.83;108579;1267;25369;-56
2023/04/22 00:56:53;;;;;;;25.30;10.00;;;;;;;6.69;66.24;100248.83;106252;1270;23215;-58
2023/04/22 00:59:25;;;;;;;26.40;10.40;;;;;;;6.66;66.36;100245.29;106241;1270;22525;-58
2023/04/22 01:01:58;;;;;;;25.40;10.50;;;;;;;6.62;66.48;100249.64;106181;1270;22524;-59
2023/04/22 01:04:30;;;;;;;22.90;9.60;;;;;;;6.56;66.60;100251.75;110304;1270;22222;-58
2023/04/22 01:07:02;;;;;;;26.90;11.00;;;;;;;6.52;66.75;100251.98;110230;1267;22395;-56
2023/04/22 01:09:32;;;;;;;25.70;10.50;;;;;;;6.49;66.69;100251.86;110240;1270;22205;-59
2023/04/22 01:12:04;;;;;;;25.60;9.80;;;;;;;6.48;66.86;100256.08;110265;1270;22183;-58
2023/04/22 01:14:35;;;;;;;26.20;10.20;;;;;;;6.45;67.15;100261.19;110196;1270;23660;-59
2023/04/22 01:17:08;;;;;;;33.40;13.30;;;;;;;6.39;67.24;100268.34;110275;1262;22166;-60
2023/04/22 01:19:40;;;;;;;30.50;13.20;;;;;;;6.34;67.82;100262.71;110300;1271;22209;-59
2023/04/22 01:22:13;;;;;;;33.40;16.20;;;;;;;6.29;67.75;100261.48;110251;1264;22943;-58
2023/04/22 01:24:44;;;;;;;29.40;14.20;;;;;;;6.24;67.79;100262.25;110287;1264;22168;-59
2023/04/22 01:27:15;;;;;;;31.20;15.10;;;;;;;6.21;67.99;100260.13;110256;1270;22390;-58
2023/04/22 01:29:47;;;;;;;31.90;15.70;;;;;;;6.18;68.03;100258.59;110250;1270;22840;-59
2023/04/22 01:32:18;;;;;;;35.60;15.70;;;;;;;6.18;68.04;100259.45;110264;1264;22131;-59
2023/04/22 01:34:49;;;;;;;34.40;15.50;;;;;;;6.18;68.17;100262.94;110232;1262;22262;-59
2023/04/22 01:37:20;;;;;;;36.70;16.60;;;;;;;6.16;68.13;100260.70;110217;1277;22132;-58
2023/04/22 01:39:51;;;;;;;36.70;18.00;;;;;;;6.15;68.39;100257.27;110198;1263;22215;-60
2023/04/22 01:42:23;;;;;;;42.30;20.00;;;;;;;6.08;68.42;100259.80;110223;1263;22264;-59
2023/04/22 01:44:54;;;;;;;35.10;17.80;;;;;;;6.02;68.66;100254.54;110159;1270;22143;-59
2023/04/22 01:47:26;;;;;;;34.80;17.90;;;;;;;5.99;68.87;100251.48;110209;1276;22915;-59
2023/04/22 01:49:57;;;;;;;38.10;17.00;;;;;;;5.91;69.39;100247.23;110224;1270;22283;-59
2023/04/22 01:52:29;;;;;;;38.20;19.00;;;;;;;5.92;69.15;100253.55;110247;1271;22542;-57
2023/04/22 01:55:02;;;;;;;38.20;18.60;;;;;;;5.89;69.26;100245.42;110273;1271;22215;-58
2023/04/22 01:57:32;;;;;;;37.50;18.00;;;;;;;5.84;69.27;100244.70;110227;1267;22303;-58
2023/04/22 02:00:04;;;;;;;36.90;18.80;;;;;;;5.84;69.32;100242.16;110235;1264;22216;-60
2023/04/22 02:02:36;;;;;;;35.80;17.60;;;;;;;5.84;69.18;100242.72;110240;1270;22326;-57
2023/04/22 02:05:09;;;;;;;36.40;17.70;;;;;;;5.86;69.31;100243.63;110242;1270;22201;-58
2023/04/22 02:07:39;;;;;;;35.70;15.90;;;;;;;5.87;69.18;100241.52;110231;1277;22215;-57
2023/04/22 02:10:11;;;;;;;37.90;17.50;;;;;;;5.88;69.15;100241.16;110247;1269;22138;-58
2023/04/22 02:12:42;;;;;;;35.90;17.80;;;;;;;5.89;69.27;100236.00;110235;1270;22359;-57
2023/04/22 02:15:13;;;;;;;36.20;17.80;;;;;;;5.89;69.21;100234.65;110224;1270;22357;-59
2023/04/22 02:17:45;;;;;;;38.50;19.10;;;;;;;5.89;69.53;100235.99;110252;1271;22175;-58
2023/04/22 02:20:15;;;;;;;43.70;19.70;;;;;;;5.88;69.51;100233.24;106449;1270;26518;-59
2023/04/22 02:22:47;;;;;;;40.80;20.00;;;;;;;5.86;69.48;100231.80;106216;1277;22523;-59
2023/04/22 02:25:18;;;;;;;41.30;20.70;;;;;;;5.85;69.55;100231.12;110201;1270;22284;-59
2023/04/22 02:27:49;;;;;;;43.40;22.30;;;;;;;5.83;69.69;100223.44;110268;1270;22169;-56
2023/04/22 02:30:20;;;;;;;47.80;21.80;;;;;;;5.81;69.73;100224.59;110252;1270;22345;-58
2023/04/22 02:32:50;;;;;;;42.90;19.50;;;;;;;5.79;69.75;100225.36;110235;1270;23005;-59
2023/04/22 02:35:22;;;;;;;38.90;18.50;;;;;;;5.77;69.76;100225.20;110237;1270;22166;-57
2023/04/22 02:37:53;;;;;;;38.00;16.80;;;;;;;5.73;69.81;100223.44;110193;1276;23124;-57
2023/04/22 02:40:24;;;;;;;38.10;17.60;;;;;;;5.69;69.98;100223.31;110258;1274;22249;-58
2023/04/22 02:42:55;;;;;;;39.90;18.50;;;;;;;5.63;69.89;100224.94;110224;1266;22141;-58
2023/04/22 02:45:25;;;;;;;35.80;16.50;;;;;;;5.60;70.22;100226.38;110250;1270;22274;-59
2023/04/22 02:47:56;;;;;;;38.80;17.70;;;;;;;5.55;70.00;100220.09;110244;1266;22251;-59
2023/04/22 02:50:27;;;;;;;37.00;16.60;;;;;;;5.52;70.22;100222.39;110234;1270;22262;-59
2023/04/22 02:52:58;;;;;;;40.00;16.60;;;;;;;5.49;70.27;100220.50;110265;1269;22269;-56
2023/04/22 02:55:29;;;;;;;40.10;17.00;;;;;;;5.46;70.29;100215.61;110259;1270;22607;-56
2023/04/22 02:58:00;;;;;;;38.50;16.20;;;;;;;5.40;70.31;100210.45;110268;1264;22211;-58
2023/04/22 03:00:31;;;;;;;40.70;17.00;;;;;;;5.38;70.34;100216.14;110266;1270;22297;-59
2023/04/22 03:03:01;;;;;;;39.00;17.10;;;;;;;5.34;70.53;100214.13;110212;1264;22232;-58
2023/04/22 03:05:32;;;;;;;35.60;16.20;;;;;;;5.30;70.51;100213.52;110224;1270;22360;-58
2023/04/22 03:08:03;;;;;;;38.50;16.00;;;;;;;5.26;70.52;100216.02;110257;1270;22435;-59
2023/04/22 03:10:35;;;;;;;34.40;15.90;;;;;;;5.21;70.62;100215.54;108094;1270;24265;-58
2023/04/22 03:13:06;;;;;;;35.50;15.90;;;;;;;5.19;70.75;100216.96;110171;1270;22978;-59
2023/04/22 03:15:37;;;;;;;36.80;15.30;;;;;;;5.17;70.80;100216.41;110255;1267;23203;-59
2023/04/22 03:18:08;;;;;;;43.00;17.70;;;;;;;5.14;70.80;100218.48;110254;1274;22172;-57
2023/04/22 03:20:39;;;;;;;34.30;15.20;;;;;;;5.10;70.78;100215.89;110263;1261;22212;-59
2023/04/22 03:23:10;;;;;;;35.80;16.20;;;;;;;5.08;70.87;100216.91;110258;1270;22229;-59
2023/04/22 03:25:41;;;;;;;33.90;14.60;;;;;;;5.08;70.87;100215.04;110276;1270;22176;-58
2023/04/22 03:28:12;;;;;;;32.40;13.60;;;;;;;5.06;70.98;100211.76;110243;1276;22200;-58
2023/04/22 03:30:42;;;;;;;36.30;14.40;;;;;;;5.05;70.98;100213.77;110232;1264;22178;-59
2023/04/22 03:33:13;;;;;;;37.30;15.60;;;;;;;5.03;71.14;100213.34;110243;1274;22235;-60
2023/04/22 03:35:47;;;;;;;34.50;14.50;;;;;;;5.02;71.25;100209.67;110265;1270;22152;-59
2023/04/22 03:38:18;;;;;;;32.00;14.20;;;;;;;5.00;71.23;100207.20;110225;1270;22166;-59
2023/04/22 03:40:49;;;;;;;32.40;14.00;;;;;;;4.99;71.35;100203.76;110239;1270;22218;-59
2023/04/22 03:43:20;;;;;;;33.80;15.30;;;;;;;4.97;71.32;100203.95;110230;1277;22326;-60
2023/04/22 03:45:52;;;;;;;36.00;14.50;;;;;;;4.94;71.45;100199.45;110261;1270;22265;-57
2023/04/22 03:48:23;;;;;;;31.00;12.70;;;;;;;4.90;71.57;100205.19;110217;1271;22196;-58
2023/04/22 03:50:54;;;;;;;31.70;11.70;;;;;;;4.89;71.63;100202.94;110257;1274;22231;-60
2023/04/22 03:53:25;;;;;;;31.20;13.80;;;;;;;4.89;71.72;100203.10;109873;1266;22530;-60
2023/04/22 03:55:56;;;;;;;28.60;13.70;;;;;;;4.87;71.79;100197.41;106226;1276;22570;-57
2023/04/22 03:58:27;;;;;;;30.80;13.00;;;;;;;4.85;71.86;100200.55;106228;1270;23006;-57
2023/04/22 04:00:57;;;;;;;30.90;14.80;;;;;;;4.83;71.91;100201.94;106153;1271;24278;-59
2023/04/22 04:03:28;;;;;;;31.50;14.00;;;;;;;4.80;72.01;100201.00;106203;1270;22543;-59
2023/04/22 04:05:59;;;;;;;34.40;14.20;;;;;;;4.77;72.11;100202.19;106213;1270;22576;-57
2023/04/22 04:08:30;;;;;;;33.20;15.70;;;;;;;4.74;72.30;100201.50;106152;1271;22506;-57
2023/04/22 04:11:00;;;;;;;34.80;15.60;;;;;;;4.71;72.44;100201.21;106159;1278;23316;-59
2023/04/22 04:13:32;;;;;;;31.40;14.60;;;;;;;4.68;72.60;100201.23;106172;1277;24462;-59
2023/04/22 04:16:02;;;;;;;34.20;14.30;;;;;;;4.64;72.70;100198.49;110223;1270;22238;-59
2023/04/22 04:18:33;;;;;;;34.50;15.20;;;;;;;4.61;72.81;100198.09;110222;1264;22211;-60
2023/04/22 04:21:05;;;;;;;36.00;15.10;;;;;;;4.60;72.93;100203.36;110252;1261;22231;-62
2023/04/22 04:23:36;;;;;;;31.40;14.90;;;;;;;4.59;73.16;100202.58;110230;1266;22313;-59
2023/04/22 04:26:07;;;;;;;34.40;14.40;;;;;;;4.59;73.13;100205.73;110241;1262;22262;-60
2023/04/22 04:28:38;;;;;;;34.40;14.40;;;;;;;4.60;73.18;100204.84;110241;1262;23067;-60
2023/04/22 04:31:09;;;;;;;30.10;13.10;;;;;;;4.62;73.39;100202.59;110251;1267;22188;-60
2023/04/22 04:33:40;;;;;;;37.80;14.90;;;;;;;4.64;73.57;100197.86;110274;1270;22203;-59
2023/04/22 04:36:11;;;;;;;33.90;15.30;;;;;;;4.66;73.62;100199.98;110219;1264;23422;-60
2023/04/22 04:38:42;;;;;;;36.90;14.60;;;;;;;4.71;73.91;100202.95;110252;1267;23315;-59
2023/04/22 04:41:33;;;;;;;45.60;16.60;;;;;;;4.74;73.92;100203.80;110194;1271;23168;-61
2023/04/22 04:44:05;;;;;;;45.50;17.70;;;;;;;4.78;74.00;100200.98;110224;1262;22279;-58
2023/04/22 04:46:36;;;;;;;54.60;20.80;;;;;;;4.83;74.38;100207.86;110221;1277;22352;-59
2023/04/22 04:49:08;;;;;;;46.80;18.70;;;;;;;4.88;74.51;100207.64;110278;1261;22354;-60
2023/04/22 04:51:39;;;;;;;52.50;19.20;;;;;;;4.93;74.68;100209.63;110228;1266;22389;-59
2023/04/22 04:54:10;;;;;;;48.00;18.80;;;;;;;5.00;74.71;100209.02;110252;1270;22463;-60
2023/04/22 04:56:41;;;;;;;56.50;20.20;;;;;;;5.08;75.08;100207.75;110258;1266;22392;-59
2023/04/22 04:59:12;;;;;;;33.60;12.80;;;;;;;5.15;75.32;100208.15;110256;1262;22541;-60
2023/04/22 05:01:43;;;;;;;37.70;14.00;;;;;;;5.22;75.50;100207.93;110221;1277;23396;-60
2023/04/22 05:04:14;;;;;;;33.30;12.60;;;;;;;5.31;75.63;100204.95;110200;1270;22917;-58
2023/04/22 05:06:44;;;;;;;30.80;12.80;;;;;;;5.40;75.83;100209.55;110233;1271;22169;-60
2023/04/22 05:09:15;;;;;;;27.20;12.10;;;;;;;5.49;75.96;100209.09;110243;1266;22323;-65
2023/04/22 05:11:46;;;;;;;32.00;11.60;;;;;;;5.58;76.04;100212.13;110259;1271;23293;-59
2023/04/22 05:14:17;;;;;;;30.10;12.00;;;;;;;5.67;76.36;100208.18;110233;1271;22138;-60
2023/04/22 05:16:48;;;;;;;26.70;10.80;;;;;;;5.79;76.65;100209.80;110229;1270;22170;-60
2023/04/22 05:19:19;;;;;;;28.50;11.20;;;;;;;5.89;76.73;100212.72;110249;1267;22398;-60
2023/04/22 05:21:49;;;;;;;30.30;11.50;;;;;;;5.98;76.99;100216.54;110182;1265;22268;-59
2023/04/22 05:24:20;;;;;;;26.80;10.10;;;;;;;6.11;77.04;100217.80;110202;1271;22216;-60
2023/04/22 05:26:51;;;;;;;25.60;11.00;;;;;;;6.25;76.95;100219.84;110189;1266;22208;-59
2023/04/22 05:29:22;;;;;;;28.40;10.80;;;;;;;6.40;77.11;100217.65;110214;1271;22323;-60
2023/04/22 05:31:53;;;;;;;27.30;10.80;;;;;;;6.55;77.05;100216.77;110189;1270;22421;-59
2023/04/22 05:34:24;;;;;;;28.20;10.60;;;;;;;6.69;76.83;100221.02;110217;1277;22230;-60
2023/04/22 05:36:55;;;;;;;25.70;10.80;;;;;;;6.82;76.84;100223.14;110200;1271;23331;-60
2023/04/22 05:39:25;;;;;;;33.10;11.90;;;;;;;6.92;76.91;100224.70;108757;1271;22520;-58
2023/04/22 05:41:56;;;;;;;25.00;10.80;;;;;;;7.01;77.02;100226.91;106110;1277;22637;-59
2023/04/22 05:44:27;;;;;;;26.50;10.60;;;;;;;7.13;77.18;100225.48;106121;1270;24271;-56
2023/04/22 05:46:58;;;;;;;25.90;9.90;;;;;;;7.24;76.96;100227.73;106149;1270;24289;-57
2023/04/22 05:49:29;;;;;;;47.00;20.30;;;;;;;7.35;76.47;100229.30;106074;1266;25325;-59
2023/04/22 05:52:00;;;;;;;49.60;19.70;;;;;;;7.44;76.34;100225.23;106107;1276;22649;-58
2023/04/22 05:54:31;;;;;;;39.10;17.20;;;;;;;7.53;76.45;100222.72;106099;1270;23064;-59
2023/04/22 05:57:02;;;;;;;37.70;15.40;;;;;;;7.64;76.84;100222.64;105687;1270;539462;-58
2023/04/22 05:59:34;;;;;;;31.20;13.80;;;;;;;7.77;76.61;100216.79;106113;1264;22536;-56
2023/04/22 06:02:04;;;;;;;27.70;10.70;;;;;;;7.91;76.43;100218.98;106073;1270;22669;-59
2023/04/22 06:04:35;;;;;;;26.90;11.90;;;;;;;8.04;76.19;100213.50;106104;1277;22658;-59
2023/04/22 06:07:06;;;;;;;29.40;10.20;;;;;;;8.17;75.97;100213.81;106107;1270;22531;-57
2023/04/22 06:09:37;;;;;;;27.30;11.30;;;;;;;8.30;75.79;100213.58;106088;1277;25516;-58
2023/04/22 06:12:08;;;;;;;27.30;10.20;;;;;;;8.41;75.70;100216.59;106156;1270;26111;-60
2023/04/22 06:14:39;;;;;;;31.60;11.40;;;;;;;8.53;75.64;100215.59;106162;1274;22520;-59
2023/04/22 06:17:10;;;;;;;28.10;12.00;;;;;;;8.65;75.45;100217.33;106073;1271;23467;-59
2023/04/22 06:19:41;;;;;;;30.50;12.40;;;;;;;8.77;75.25;100221.44;106034;1270;24628;-59
2023/04/22 06:22:11;;;;;;;27.80;11.40;;;;;;;8.88;74.80;100217.11;106094;1277;25352;-58
2023/04/22 06:24:43;;;;;;;27.60;11.10;;;;;;;8.98;74.51;100217.00;105988;1255;25522;-67
2023/04/22 06:27:14;;;;;;;28.90;11.60;;;;;;;9.08;74.45;100216.33;107132;1270;22689;-58
2023/04/22 06:29:45;;;;;;;23.60;10.80;;;;;;;9.18;74.48;100220.07;106027;1265;25409;-60
2023/04/22 06:32:16;;;;;;;28.50;11.90;;;;;;;9.28;74.56;100217.98;105794;1264;22567;-60
2023/04/22 06:34:47;;;;;;;25.30;11.10;;;;;;;9.38;74.39;100218.37;106024;1270;22605;-62
2023/04/22 06:37:17;;;;;;;27.70;11.50;;;;;;;9.48;74.47;100217.77;106127;1277;22635;-59
2023/04/22 06:39:49;;;;;;;29.30;12.00;;;;;;;9.58;74.69;100213.77;106004;1262;25383;-60
2023/04/22 06:42:19;;;;;;;26.20;10.70;;;;;;;9.68;74.43;100216.43;105928;1262;22519;-58
2023/04/22 06:44:50;;;;;;;24.20;9.40;;;;;;;9.78;73.85;100216.45;106083;1274;22752;-59
2023/04/22 06:47:21;;;;;;;24.90;11.00;;;;;;;9.88;73.69;100220.09;106040;1265;22576;-59
2023/04/22 06:49:53;;;;;;;25.80;10.60;;;;;;;9.98;73.60;100220.56;106009;1262;25484;-60
2023/04/22 06:52:23;;;;;;;24.80;10.70;;;;;;;10.07;73.41;100216.98;106039;1272;25335;-58
2023/04/22 06:54:54;;;;;;;25.50;10.50;;;;;;;10.15;73.16;100219.62;106077;1271;22524;-57
2023/04/22 06:57:26;;;;;;;24.30;10.60;;;;;;;10.23;73.16;100216.64;106029;1276;22606;-59
2023/04/22 06:59:57;;;;;;;24.80;8.80;;;;;;;10.31;72.68;100217.83;110202;1266;23319;-60
2023/04/22 07:02:27;;;;;;;24.70;10.00;;;;;;;10.40;71.57;100220.59;110169;1262;22190;-61
2023/04/22 07:04:58;;;;;;;26.40;9.70;;;;;;;10.50;71.60;100220.48;110197;1261;22408;-60
2023/04/22 07:07:29;;;;;;;27.10;9.50;;;;;;;10.57;71.38;100221.11;110184;1277;23002;-60
2023/04/22 07:10:00;;;;;;;23.30;9.10;;;;;;;10.68;71.37;100221.05;110205;1274;22189;-60
2023/04/22 07:12:31;;;;;;;27.40;10.70;;;;;;;10.79;71.31;100219.36;110207;1267;22338;-60
2023/04/22 07:15:02;;;;;;;27.50;10.40;;;;;;;10.92;71.22;100221.98;106267;1271;24403;-60
2023/04/22 07:17:33;;;;;;;27.30;11.60;;;;;;;11.03;71.16;100219.84;105915;1256;22550;-65
2023/04/22 07:20:04;;;;;;;25.70;10.90;;;;;;;11.16;71.41;100221.53;106064;1262;25716;-63
2023/04/22 07:22:35;;;;;;;27.90;10.40;;;;;;;11.29;71.38;100219.75;106073;1277;22739;-60
2023/04/22 07:25:07;;;;;;;26.80;10.80;;;;;;;11.44;71.16;100220.13;106022;1271;24414;-60
2023/04/22 07:27:38;;;;;;;25.60;10.70;;;;;;;11.56;70.55;100223.02;106315;1271;24299;-59
2023/04/22 07:30:11;;;;;;;21.30;9.30;;;;;;;11.67;69.77;100223.38;106177;1271;22517;-58
2023/04/22 07:32:42;;;;;;;24.30;8.30;;;;;;;11.78;69.58;100225.50;110179;1271;22407;-59
2023/04/22 07:35:13;;;;;;;22.70;8.70;;;;;;;11.89;69.00;100223.95;110172;1270;22271;-59
2023/04/22 07:37:44;;;;;;;21.90;8.70;;;;;;;11.94;68.94;100222.56;110206;1277;22961;-60
2023/04/22 07:40:15;;;;;;;26.10;9.90;;;;;;;12.05;68.90;100223.77;110180;1271;22402;-62
2023/04/22 07:42:47;;;;;;;30.70;10.80;;;;;;;12.13;68.91;100223.83;110197;1270;22504;-61
2023/04/22 07:45:18;;;;;;;26.20;9.90;;;;;;;12.17;68.37;100227.09;110204;1266;22190;-59
2023/04/22 07:47:49;;;;;;;23.30;8.80;;;;;;;12.23;67.96;100223.89;110314;1271;22408;-59
2023/04/22 07:50:20;;;;;;;21.90;7.20;;;;;;;12.34;67.78;100226.10;110194;1263;22245;-57
2023/04/22 07:52:51;;;;;;;22.30;8.20;;;;;;;12.44;67.39;100224.48;110156;1262;22471;-60
2023/04/22 07:55:22;;;;;;;23.90;8.60;;;;;;;12.51;67.13;100221.31;110186;1274;22141;-57
2023/04/22 07:57:52;;;;;;;25.40;10.40;;;;;;;12.62;67.13;100220.14;110234;1264;22291;-63
2023/04/22 08:00:23;;;;;;;22.30;9.00;;;;;;;12.77;66.74;100217.08;110184;1271;22659;-58
2023/04/22 08:02:54;;;;;;;21.20;8.20;;;;;;;12.85;66.75;100218.04;110214;1270;22344;-59
2023/04/22 08:05:25;;;;;;;20.50;7.40;;;;;;;12.93;66.18;100217.75;110243;1261;22257;-59
2023/04/22 08:07:56;;;;;;;21.60;7.30;;;;;;;13.05;66.11;100217.46;110209;1262;23125;-59
2023/04/22 08:10:30;;;;;;;19.80;6.50;;;;;;;13.15;65.84;100214.50;110272;1264;22177;-58
2023/04/22 08:13:01;;;;;;;18.10;6.30;;;;;;;13.25;65.70;100214.27;110209;1271;23064;-60
2023/04/22 08:15:32;;;;;;;21.60;7.40;;;;;;;13.40;65.92;100213.83;110196;1267;22308;-59
2023/04/22 08:18:03;;;;;;;17.40;6.20;;;;;;;13.51;65.22;100212.33;110213;1270;22282;-60
2023/04/22 08:20:34;;;;;;;21.50;7.20;;;;;;;13.57;64.48;100212.16;110184;1261;23027;-60
2023/04/22 08:23:05;;;;;;;20.40;7.00;;;;;;;13.62;64.49;100215.30;110198;1262;22207;-59
2023/04/22 08:25:37;;;;;;;19.50;8.10;;;;;;;13.71;63.72;100217.59;110298;1262;22230;-60
2023/04/22 08:28:08;;;;;;;17.60;6.50;;;;;;;13.79;63.34;100215.45;110273;1271;22216;-61
2023/04/22 08:30:39;;;;;;;19.00;5.70;;;;;;;13.85;62.60;100212.89;110192;1270;23574;-60
2023/04/22 08:33:11;;;;;;;18.80;6.30;;;;;;;13.94;62.68;100211.75;110174;1264;22209;-63
2023/04/22 08:35:42;;;;;;;20.60;7.10;;;;;;;14.03;62.55;100214.80;109002;1264;24360;-62
2023/04/22 08:38:13;;;;;;;19.10;7.60;;;;;;;14.12;62.40;100210.91;106081;1279;22534;-56
2023/04/22 08:40:45;;;;;;;22.80;8.40;;;;;;;14.26;62.68;100210.27;106020;1279;25208;-59
2023/04/22 08:43:16;;;;;;;19.80;8.20;;;;;;;14.42;62.39;100208.86;106056;1264;22537;-59
2023/04/22 08:45:48;;;;;;;20.00;7.50;;;;;;;14.55;62.29;100206.48;106009;1264;22652;-58
2023/04/22 08:48:19;;;;;;;19.60;7.60;;;;;;;14.69;62.43;100205.59;105945;1268;22548;-60
2023/04/22 08:50:50;;;;;;;30.20;7.20;;;;;;;14.80;62.07;100206.70;110117;1264;22365;-60
2023/04/22 08:53:22;;;;;;;16.90;6.50;;;;;;;14.88;61.83;100202.21;110123;1270;22180;-59
2023/04/22 08:55:55;;;;;;;17.40;6.80;;;;;;;14.97;61.08;100205.02;110099;1265;22532;-59
2023/04/22 08:58:28;;;;;;;22.10;6.70;;;;;;;15.04;60.79;100205.58;110080;1271;22291;-60
2023/04/22 09:00:59;;;;;;;19.80;7.10;;;;;;;15.07;60.94;100206.35;110127;1267;22247;-59
2023/04/22 09:03:31;;;;;;;17.50;5.40;;;;;;;15.16;60.48;100204.62;110069;1267;22327;-60
2023/04/22 09:06:04;;;;;;;13.60;5.20;;;;;;;15.28;59.58;100210.04;110083;1272;22267;-59
2023/04/22 09:08:35;;;;;;;17.70;5.90;;;;;;;15.34;58.98;100205.89;110130;1270;22253;-59
2023/04/22 09:11:06;;;;;;;13.90;4.60;;;;;;;15.41;58.17;100207.77;110139;1262;22291;-59
2023/04/22 09:13:37;;;;;;;19.30;5.60;;;;;;;15.55;58.22;100204.87;110147;1274;22231;-58
2023/04/22 09:16:10;;;;;;;18.20;4.60;;;;;;;15.64;57.71;100205.77;110130;1267;22396;-62
2023/04/22 09:18:45;;;;;;;19.60;4.90;;;;;;;15.73;57.73;100204.30;110099;1272;22207;-60
2023/04/22 09:21:16;;;;;;;18.90;4.80;;;;;;;15.89;57.80;100201.91;110112;1267;22176;-60
2023/04/22 09:23:51;;;;;;;17.60;6.00;;;;;;;15.98;57.19;100202.17;110136;1266;22211;-60
2023/04/22 09:26:24;;;;;;;14.50;4.60;;;;;;;16.03;56.78;100199.40;110086;1273;22192;-59
2023/04/22 09:28:58;;;;;;;14.50;4.80;;;;;;;16.10;56.84;100200.35;110100;1271;22428;-60
2023/04/22 09:31:29;;;;;;;15.50;4.60;;;;;;;16.26;56.10;100195.21;110110;1274;22276;-59
2023/04/22 09:34:01;;;;;;;15.80;6.10;;;;;;;16.36;55.61;100196.39;110108;1265;23046;-59
2023/04/22 09:36:36;;;;;;;14.90;4.80;;;;;;;16.38;55.21;100194.02;110062;1267;23028;-59
2023/04/22 09:39:08;;;;;;;17.60;4.40;;;;;;;16.44;54.68;100194.05;110112;1276;22216;-60
2023/04/22 09:41:40;;;;;;;14.80;3.50;;;;;;;16.49;54.16;100191.68;110099;1274;22312;-60
2023/04/22 09:44:16;;;;;;;11.70;3.30;;;;;;;16.56;53.69;100190.67;110091;1271;22252;-60
2023/04/22 09:46:50;;;;;;;13.90;3.50;;;;;;;16.63;53.47;100188.27;110104;1271;22328;-60
2023/04/22 09:49:23;;;;;;;16.10;3.00;;;;;;;16.71;52.95;100182.83;110080;1278;22165;-61
2023/04/22 09:51:57;;;;;;;14.20;3.50;;;;;;;16.78;51.92;100178.48;110077;1271;22225;-60
2023/04/22 09:54:27;;;;;;;11.80;3.20;;;;;;;16.87;51.44;100174.32;110132;1267;22395;-61
2023/04/22 09:56:58;;;;;;;10.50;3.10;;;;;;;16.92;51.50;100171.45;110095;1270;22352;-60
2023/04/22 09:59:30;;;;;;;10.80;3.10;;;;;;;17.01;50.87;100174.92;110102;1267;22222;-60
2023/04/22 10:02:05;;;;;;;11.60;2.80;;;;;;;17.11;50.93;100174.27;110092;1271;23206;-62
2023/04/22 10:04:36;;;;;;;9.00;2.40;;;;;;;17.17;49.31;100170.84;110129;1279;22161;-60
2023/04/22 10:07:07;;;;;;;10.80;2.90;;;;;;;17.22;49.33;100172.08;110109;1267;22968;-60
2023/04/22 10:09:38;;;;;;;10.60;2.90;;;;;;;17.31;48.97;100166.14;110135;1272;22267;-60
2023/04/22 10:12:09;;;;;;;33.20;13.70;;;;;;;17.41;48.11;100164.96;110096;1274;22141;-60
2023/04/22 10:14:40;;;;;;;28.20;10.30;;;;;;;17.51;48.54;100163.87;110081;1273;22250;-60
2023/04/22 10:17:12;;;;;;;20.20;7.70;;;;;;;17.55;48.19;100159.72;110108;1265;22227;-62
2023/04/22 10:19:46;;;;;;;9.90;2.80;;;;;;;17.63;47.53;100164.41;110079;1279;22204;-59
2023/04/22 10:22:17;;;;;;;69.90;37.50;;;;;;;17.74;47.19;100156.99;110092;1267;22217;-60
2023/04/22 10:24:54;;;;;;;21.60;6.10;;;;;;;17.89;46.74;100155.59;110086;1264;22199;-62
2023/04/22 10:27:25;;;;;;;24.90;9.40;;;;;;;17.99;45.92;100152.78;109989;1274;22215;-60
2023/04/22 10:29:58;;;;;;;11.90;3.20;;;;;;;18.06;46.01;100151.89;110100;1267;22217;-59
2023/04/22 10:32:29;;;;;;;18.20;3.20;;;;;;;18.12;46.07;100149.65;110119;1271;22418;-60
2023/04/22 10:35:12;;;;;;;10.90;2.90;;;;;;;18.17;45.48;100147.48;110026;1265;23316;-60
2023/04/22 10:37:48;;;;;;;10.80;2.20;;;;;;;18.18;44.81;100146.23;110076;1270;22218;-60
2023/04/22 10:40:21;;;;;;;10.30;2.40;;;;;;;18.17;44.21;100146.02;110076;1276;22391;-60
2023/04/22 10:43:02;;;;;;;12.80;2.90;;;;;;;18.25;44.44;100143.91;110066;1274;22319;-60
2023/04/22 10:45:35;;;;;;;38.10;18.40;;;;;;;18.31;43.98;100139.82;110098;1273;22268;-60
2023/04/22 10:48:07;;;;;;;12.50;4.10;;;;;;;18.41;43.35;100135.37;110075;1274;22300;-59
2023/04/22 10:50:39;;;;;;;18.20;3.30;;;;;;;18.50;43.03;100137.16;110101;1267;22358;-60
2023/04/22 10:53:36;;;;;;;10.20;2.10;;;;;;;18.59;43.07;100138.16;110090;1264;22691;-60
2023/04/22 10:56:18;;;;;;;14.30;1.90;;;;;;;18.65;42.33;100135.00;110051;1271;22228;-60
2023/04/22 10:58:50;;;;;;;8.80;1.60;;;;;;;18.67;41.59;100133.47;110050;1267;23083;-59
2023/04/22 11:01:21;;;;;;;8.60;2.30;;;;;;;18.70;41.51;100126.83;110057;1276;22279;-62
2023/04/22 11:03:53;;;;;;;48.50;15.60;;;;;;;18.78;41.86;100125.73;110074;1277;22227;-60
2023/04/22 11:06:26;;;;;;;24.50;5.90;;;;;;;18.86;41.72;100125.34;110070;1274;22227;-61
2023/04/22 11:09:11;;;;;;;44.80;17.90;;;;;;;18.89;41.65;100126.42;109965;1274;22400;-60
2023/04/22 11:11:42;;;;;;;26.20;6.90;;;;;;;18.85;41.10;100122.89;110049;1273;22231;-62
2023/04/22 11:14:13;;;;;;;26.30;7.20;;;;;;;18.83;40.84;100115.31;110100;1270;22217;-60
2023/04/22 11:16:51;;;;;;;98.50;38.50;;;;;;;18.85;41.59;100111.64;110118;1271;22237;-61
2023/04/22 11:19:22;;;;;;;42.20;15.40;;;;;;;18.82;41.78;100103.56;110109;1277;22244;-60
2023/04/22 11:21:54;;;;;;;33.10;10.30;;;;;;;18.78;42.68;100105.27;110062;1264;24581;-60
2023/04/22 11:24:25;;;;;;;56.40;20.50;;;;;;;18.71;42.02;100101.37;110099;1271;22149;-60
2023/04/22 11:26:58;;;;;;;22.50;5.40;;;;;;;18.69;42.15;100098.28;110141;1273;23565;-60
2023/04/22 11:29:29;;;;;;;43.40;16.20;;;;;;;18.69;41.94;100101.66;110135;1273;22170;-60